createdAt,value
2023-02-13T00:05:21.710Z,40.23
2023-02-13T00:15:23.246Z,40.12
2023-02-13T00:25:24.812Z,40.25
2023-02-13T00:35:26.188Z,40.28
2023-02-13T00:45:27.581Z,40.38
2023-02-13T00:55:28.986Z,40.46
2023-02-13T01:05:30.560Z,40.54
2023-02-13T01:15:32.572Z,40.56
2023-02-13T01:25:34.107Z,40.47
2023-02-13T01:35:35.499Z,40.68
2023-02-13T01:45:37.011Z,40.61
2023-02-13T01:55:52.930Z,40.68
2023-02-13T02:05:54.891Z,40.63
2023-02-13T02:15:56.321Z,40.61
2023-02-13T02:26:31.263Z,40.55
2023-02-13T02:36:40.861Z,40.86
2023-02-13T02:47:11.164Z,40.85
2023-02-13T02:57:19.258Z,40.55
2023-02-13T03:07:20.705Z,40.59
2023-02-13T03:17:40.661Z,40.69
2023-02-13T03:28:16.238Z,40.43
2023-02-13T03:38:30.032Z,40.34
2023-02-13T03:48:56.032Z,39.85
2023-02-13T03:59:16.194Z,39.78
2023-02-13T04:09:17.744Z,39.42
2023-02-13T04:19:19.311Z,39.47
2023-02-13T04:29:24.151Z,39.31
2023-02-13T04:39:25.579Z,39.21
2023-02-13T04:49:27.102Z,39.19
2023-02-13T04:59:28.622Z,39.23
2023-02-13T05:09:29.987Z,39.31
2023-02-13T05:19:31.551Z,39.34
2023-02-13T05:29:32.921Z,39.35
2023-02-13T05:39:34.304Z,39.24
2023-02-13T05:49:36.790Z,39.20
2023-02-13T05:59:38.538Z,39.20
2023-02-13T06:09:40.141Z,39.13
2023-02-13T06:19:41.541Z,39.19
2023-02-13T06:29:42.939Z,39.23
2023-02-13T06:39:45.198Z,39.37
2023-02-13T06:49:46.597Z,39.31
2023-02-13T06:59:48.163Z,39.30
2023-02-13T07:09:49.547Z,39.39
2023-02-13T07:19:51.066Z,39.33
2023-02-13T07:29:52.670Z,39.38
2023-02-13T07:39:54.074Z,39.10
2023-02-13T07:49:55.605Z,38.32
2023-02-13T07:59:56.998Z,37.79
2023-02-13T08:10:17.014Z,37.26
2023-02-13T08:20:18.471Z,36.60
2023-02-13T08:30:19.899Z,36.17
2023-02-13T08:40:23.499Z,35.62
2023-02-13T08:50:27.166Z,35.23
2023-02-13T09:00:28.773Z,34.96
2023-02-13T09:10:31.258Z,34.58
2023-02-13T09:20:33.917Z,34.29
2023-02-13T09:30:36.165Z,34.24
2023-02-13T09:41:02.701Z,33.99
2023-02-13T09:51:04.359Z,33.87
2023-02-13T10:01:07.011Z,33.58
2023-02-13T10:11:58.834Z,34.27
2023-02-13T10:22:18.471Z,34.54
2023-02-13T10:32:21.186Z,34.86
2023-02-13T10:42:25.608Z,35.08
2023-02-13T10:52:33.588Z,35.25
2023-02-13T11:02:36.740Z,35.37
2023-02-13T11:12:38.331Z,35.56
2023-02-13T11:22:42.312Z,35.92
2023-02-13T11:32:43.706Z,36.11
2023-02-13T11:42:45.425Z,36.27
2023-02-13T11:53:00.511Z,36.34
2023-02-13T12:03:02.103Z,36.59
2023-02-13T12:13:13.563Z,36.82
2023-02-13T12:23:43.834Z,37.04
2023-02-13T12:34:18.896Z,36.96
2023-02-13T12:44:29.185Z,37.22
2023-02-13T12:55:04.447Z,37.30
2023-02-13T13:05:34.476Z,37.27
2023-02-13T13:15:40.977Z,37.24
2023-02-13T13:25:51.689Z,37.15
2023-02-13T13:36:07.662Z,37.49
2023-02-13T13:46:22.542Z,37.40
2023-02-13T13:56:23.961Z,37.51
2023-02-13T14:06:44.268Z,37.40
2023-02-13T14:16:46.056Z,37.51
2023-02-13T14:27:04.931Z,37.19
2023-02-13T14:37:20.721Z,37.45
2023-02-13T14:47:43.639Z,37.29
2023-02-13T14:57:54.222Z,37.62
2023-02-13T15:08:13.569Z,37.54
2023-02-13T15:18:20.749Z,37.34
2023-02-13T15:28:22.136Z,37.38
2023-02-13T15:38:37.723Z,37.58
2023-02-13T15:48:39.113Z,37.66
2023-02-13T15:58:40.504Z,37.59
2023-02-13T16:08:52.179Z,37.44
2023-02-13T16:18:53.815Z,37.83
2023-02-13T16:28:55.694Z,38.08
2023-02-13T16:38:57.142Z,38.05
2023-02-13T16:49:01.334Z,38.23
2023-02-13T16:59:10.568Z,38.18
2023-02-13T17:09:12.087Z,38.41
2023-02-13T17:19:13.538Z,38.48
2023-02-13T17:29:14.925Z,38.56
2023-02-13T17:39:16.490Z,38.59
2023-02-13T17:49:17.901Z,38.73
2023-02-13T17:59:19.438Z,38.86
2023-02-13T18:09:21.351Z,38.89
2023-02-13T18:19:22.891Z,38.96
2023-02-13T18:29:24.355Z,39.11
2023-02-13T18:39:25.743Z,39.07
2023-02-13T18:49:27.179Z,39.23
2023-02-13T18:59:28.645Z,39.37
2023-02-13T19:09:30.257Z,39.43
2023-02-13T19:19:31.817Z,39.16
2023-02-13T19:29:33.361Z,39.41
2023-02-13T19:39:34.772Z,39.58
2023-02-13T19:49:36.319Z,39.64
2023-02-13T19:59:37.857Z,39.60
2023-02-13T20:09:40.268Z,39.74
2023-02-13T20:19:41.672Z,39.75
2023-02-13T20:29:43.179Z,39.72
2023-02-13T20:39:44.565Z,39.81
2023-02-13T20:49:45.983Z,39.81
2023-02-13T20:59:47.408Z,39.80
2023-02-13T21:09:48.792Z,39.90
2023-02-13T21:19:50.398Z,40.06
2023-02-13T21:29:51.876Z,39.98
2023-02-13T21:39:53.271Z,39.87
2023-02-13T21:49:54.671Z,40.07
2023-02-13T21:59:57.006Z,39.97
2023-02-13T22:09:58.455Z,40.17
2023-02-13T22:19:59.852Z,40.22
2023-02-13T22:30:01.387Z,40.28
2023-02-13T22:40:03.479Z,40.18
2023-02-13T22:50:05.619Z,40.31
2023-02-13T23:00:08.664Z,40.63
2023-02-13T23:10:10.580Z,40.94
2023-02-13T23:20:12.197Z,40.65
2023-02-13T23:30:14.631Z,40.70
2023-02-13T23:40:16.382Z,40.59
2023-02-13T23:50:17.851Z,40.55
